createdAt,value
2019-02-11T00:02:07.193Z,0.90
2019-02-11T00:04:37.317Z,1.40
2019-02-11T00:07:08.003Z,3.20
2019-02-11T00:09:38.224Z,1.10
2019-02-11T00:12:08.345Z,0.77
2019-02-11T00:14:38.592Z,0.80
2019-02-11T00:17:08.588Z,1.33
2019-02-11T00:19:38.949Z,1.90
2019-02-11T00:22:09.249Z,1.30
2019-02-11T00:24:39.201Z,0.80
2019-02-11T00:27:09.614Z,1.23
2019-02-11T00:29:39.610Z,1.60
2019-02-11T00:32:09.765Z,0.80
2019-02-11T00:34:40.055Z,0.80
2019-02-11T00:37:10.210Z,1.30
2019-02-11T00:39:40.455Z,1.10
2019-02-11T00:42:10.692Z,0.70
2019-02-11T00:44:40.713Z,1.17
2019-02-11T00:47:10.770Z,0.80
2019-02-11T00:49:40.897Z,1.43
2019-02-11T00:52:10.928Z,1.07
2019-02-11T00:54:40.928Z,0.87
2019-02-11T00:57:11.081Z,2.70
2019-02-11T00:59:41.109Z,1.23
2019-02-11T01:02:11.083Z,1.63
2019-02-11T01:04:41.070Z,3.80
2019-02-11T01:07:11.361Z,2.40
2019-02-11T01:09:41.361Z,0.90
2019-02-11T01:12:11.464Z,0.90
2019-02-11T01:14:41.411Z,0.80
2019-02-11T01:17:11.476Z,1.10
2019-02-11T01:19:41.474Z,0.90
2019-02-11T01:22:11.925Z,1.17
2019-02-11T01:24:41.980Z,0.97
2019-02-11T01:27:12.229Z,1.40
2019-02-11T01:29:42.186Z,1.00
2019-02-11T01:32:12.260Z,0.90
2019-02-11T01:34:42.258Z,1.23
2019-02-11T01:37:12.245Z,3.07
2019-02-11T01:39:42.313Z,3.07
2019-02-11T01:42:12.437Z,1.10
2019-02-11T01:44:42.446Z,1.57
2019-02-11T01:47:12.550Z,1.03
2019-02-11T01:49:42.574Z,2.30
2019-02-11T01:52:12.550Z,3.17
2019-02-11T01:54:42.991Z,4.37
2019-02-11T01:57:13.043Z,0.80
2019-02-11T01:59:44.060Z,1.23
2019-02-11T02:02:14.082Z,1.00
2019-02-11T02:04:44.112Z,1.17
2019-02-11T02:07:14.226Z,1.27
2019-02-11T02:09:44.463Z,2.20
2019-02-11T02:12:14.732Z,1.37
2019-02-11T02:14:44.968Z,2.73
2019-02-11T02:17:14.940Z,2.17
2019-02-11T02:19:45.421Z,1.20
2019-02-11T02:22:15.413Z,1.10
2019-02-11T02:24:45.749Z,2.80
2019-02-11T02:27:15.745Z,1.00
2019-02-11T02:29:45.732Z,0.90
2019-02-11T02:32:15.864Z,2.33
2019-02-11T02:34:46.092Z,1.00
2019-02-11T02:37:16.347Z,3.40
2019-02-11T02:39:47.333Z,2.83
2019-02-11T02:42:18.033Z,1.00
2019-02-11T02:44:48.236Z,1.13
2019-02-11T02:47:18.218Z,1.10
2019-02-11T02:49:48.645Z,2.17
2019-02-11T02:52:18.674Z,1.00
2019-02-11T02:54:48.749Z,1.73
2019-02-11T02:57:19.025Z,1.53
2019-02-11T02:59:49.005Z,3.73
2019-02-11T03:02:19.200Z,1.23
2019-02-11T03:04:49.389Z,5.07
2019-02-11T03:07:19.986Z,6.83
2019-02-11T03:09:50.044Z,4.20
2019-02-11T03:12:20.284Z,3.83
2019-02-11T03:14:50.245Z,4.20
2019-02-11T03:17:20.258Z,3.60
2019-02-11T03:19:50.427Z,6.30
2019-02-11T03:22:20.389Z,9.20
2019-02-11T03:24:50.891Z,3.63
2019-02-11T03:27:20.822Z,3.30
2019-02-11T03:29:50.768Z,5.07
2019-02-11T03:32:20.929Z,5.00
2019-02-11T03:34:51.023Z,4.27
2019-02-11T03:37:21.036Z,7.90
2019-02-11T03:39:51.045Z,9.73
2019-02-11T03:42:21.197Z,7.40
2019-02-11T03:44:51.433Z,15.87
2019-02-11T03:47:21.569Z,9.37
2019-02-11T03:49:51.540Z,17.00
2019-02-11T03:52:21.907Z,6.10
2019-02-11T03:54:51.983Z,3.43
2019-02-11T03:57:22.164Z,4.10
2019-02-11T03:59:52.282Z,8.93
2019-02-11T04:02:22.308Z,1.73
2019-02-11T04:04:52.525Z,3.60
2019-02-11T04:07:22.513Z,13.40
2019-02-11T04:09:52.527Z,4.23
2019-02-11T04:12:22.588Z,3.90
2019-02-11T04:14:52.637Z,7.10
2019-02-11T04:17:22.656Z,8.20
2019-02-11T04:19:53.079Z,5.07
2019-02-11T04:22:23.108Z,3.30
2019-02-11T04:24:53.075Z,6.33
2019-02-11T04:27:23.100Z,4.37
2019-02-11T04:29:53.059Z,2.50
2019-02-11T04:32:23.156Z,14.90
2019-02-11T04:34:53.117Z,8.33
2019-02-11T04:37:23.258Z,7.80
2019-02-11T04:39:53.443Z,5.73
2019-02-11T04:42:23.450Z,6.60
2019-02-11T04:44:53.436Z,14.23
2019-02-11T04:47:23.494Z,2.57
2019-02-11T04:49:53.552Z,4.70
2019-02-11T04:52:23.682Z,8.30
2019-02-11T04:54:53.676Z,58.37
2019-02-11T04:57:23.646Z,4.00
2019-02-11T04:59:53.665Z,14.40
2019-02-11T05:02:24.140Z,5.90
2019-02-11T05:04:54.101Z,6.77
2019-02-11T05:07:24.124Z,8.07
2019-02-11T05:09:54.241Z,4.57
2019-02-11T05:12:24.379Z,42.80
2019-02-11T05:14:54.329Z,6.53
2019-02-11T05:17:24.737Z,13.93
2019-02-11T05:19:54.734Z,11.40
2019-02-11T05:22:24.689Z,10.47
2019-02-11T05:24:54.881Z,24.73
2019-02-11T05:27:24.857Z,8.20
2019-02-11T05:29:54.818Z,5.23
2019-02-11T05:32:24.810Z,15.83
2019-02-11T05:34:54.813Z,11.13
2019-02-11T05:37:24.934Z,13.10
2019-02-11T05:39:54.885Z,9.30
2019-02-11T05:42:25.021Z,7.67
2019-02-11T05:44:55.028Z,15.20
2019-02-11T05:47:25.448Z,6.93
2019-02-11T05:49:56.129Z,5.97
2019-02-11T05:52:26.088Z,10.30
2019-02-11T05:54:56.193Z,5.13
2019-02-11T05:57:26.174Z,5.80
2019-02-11T05:59:56.133Z,11.50
2019-02-11T06:02:26.136Z,5.60
2019-02-11T06:04:56.225Z,13.63
2019-02-11T06:07:26.257Z,66.23
2019-02-11T06:09:56.341Z,13.63
2019-02-11T06:12:26.396Z,7.40
2019-02-11T06:15:03.959Z,10.50
2019-02-11T06:17:28.052Z,6.93
2019-02-11T06:19:58.166Z,12.30
2019-02-11T06:22:28.328Z,14.37
2019-02-11T06:24:58.669Z,4.50
2019-02-11T06:27:28.694Z,6.93
2019-02-11T06:29:58.696Z,11.50
2019-02-11T06:32:28.833Z,12.93
2019-02-11T06:34:58.842Z,16.13
2019-02-11T06:37:28.781Z,23.87
2019-02-11T06:39:58.793Z,13.70
2019-02-11T06:42:28.856Z,27.83
2019-02-11T06:44:58.889Z,10.37
2019-02-11T06:47:28.921Z,28.43
2019-02-11T06:49:59.493Z,10.90
2019-02-11T06:52:30.073Z,19.30
2019-02-11T06:55:00.388Z,7.80
2019-02-11T06:57:30.488Z,11.80
2019-02-11T07:00:00.586Z,18.77
2019-02-11T07:02:30.586Z,28.40
2019-02-11T07:05:01.945Z,15.67
2019-02-11T07:07:31.886Z,101.20
2019-02-11T07:10:01.910Z,37.47
2019-02-11T07:12:32.449Z,28.63
2019-02-11T07:15:02.521Z,35.90
2019-02-11T07:17:32.495Z,15.17
2019-02-11T07:20:02.549Z,21.13
2019-02-11T07:22:32.685Z,26.80
2019-02-11T07:25:02.985Z,7.47
2019-02-11T07:27:33.016Z,19.60
2019-02-11T07:30:03.317Z,7.53
2019-02-11T07:32:33.324Z,38.77
2019-02-11T07:35:03.269Z,12.80
2019-02-11T07:37:33.281Z,8.20
2019-02-11T07:40:03.292Z,6.10
2019-02-11T07:42:53.440Z,10.37
2019-02-11T07:45:42.785Z,22.13
2019-02-11T07:48:12.744Z,19.60
2019-02-11T07:50:42.821Z,15.30
2019-02-11T07:53:13.014Z,23.07
2019-02-11T07:55:42.964Z,19.90
2019-02-11T07:58:14.312Z,26.33
2019-02-11T08:00:44.369Z,72.17
2019-02-11T08:03:14.797Z,56.73
2019-02-11T08:05:45.686Z,29.63
2019-02-11T08:08:15.721Z,20.93
2019-02-11T08:10:45.933Z,94.63
2019-02-11T08:13:16.229Z,45.00
2019-02-11T08:15:46.249Z,40.50
2019-02-11T08:18:16.277Z,73.17
2019-02-11T08:20:46.728Z,26.50
2019-02-11T08:23:16.786Z,67.40
2019-02-11T08:25:46.737Z,14.67
2019-02-11T08:28:19.635Z,22.50
2019-02-11T08:30:48.769Z,23.10
2019-02-11T08:33:18.841Z,52.10
2019-02-11T08:35:48.881Z,45.07
2019-02-11T08:38:18.895Z,45.83
2019-02-11T08:40:48.933Z,7.17
2019-02-11T08:43:19.301Z,6.27
2019-02-11T08:45:49.469Z,8.73
2019-02-11T08:48:19.657Z,35.37
2019-02-11T08:50:49.850Z,36.00
2019-02-11T08:53:20.074Z,9.30
2019-02-11T08:55:50.129Z,11.67
2019-02-11T08:58:20.089Z,16.77
2019-02-11T09:00:50.299Z,9.30
2019-02-11T09:03:20.480Z,12.30
2019-02-11T09:05:50.666Z,3.93
2019-02-11T09:08:20.609Z,8.43
2019-02-11T09:10:50.709Z,24.73
2019-02-11T09:13:20.804Z,36.43
2019-02-11T09:15:55.370Z,9.53
2019-02-11T09:18:22.449Z,11.03
2019-02-11T09:20:52.545Z,111.17
2019-02-11T09:23:22.722Z,12.93
2019-02-11T09:25:52.897Z,12.23
2019-02-11T09:28:22.998Z,7.60
2019-02-11T09:30:53.001Z,10.73
2019-02-11T09:33:23.054Z,16.37
2019-02-11T09:35:53.049Z,7.20
2019-02-11T09:38:23.360Z,6.73
2019-02-11T09:40:53.374Z,15.03
2019-02-11T09:43:23.690Z,10.43
2019-02-11T09:45:53.967Z,7.70
2019-02-11T09:48:24.029Z,9.30
2019-02-11T09:50:54.353Z,11.93
2019-02-11T09:53:24.623Z,8.50
2019-02-11T09:55:54.564Z,7.90
2019-02-11T09:58:24.758Z,9.40
2019-02-11T10:00:54.781Z,16.67
2019-02-11T10:03:24.825Z,12.47
2019-02-11T10:05:55.017Z,21.87
2019-02-11T10:08:25.040Z,15.87
2019-02-11T10:10:55.056Z,43.20
2019-02-11T10:13:25.172Z,127.87
2019-02-11T10:15:55.189Z,22.53
2019-02-11T10:18:25.254Z,17.00
2019-02-11T10:20:55.316Z,9.30
2019-02-11T10:23:25.661Z,7.13
2019-02-11T10:25:55.885Z,15.00
2019-02-11T10:28:25.913Z,7.17
2019-02-11T10:30:55.941Z,11.00
2019-02-11T10:33:26.073Z,19.53
2019-02-11T10:35:56.113Z,8.53
2019-02-11T10:38:27.611Z,14.87
2019-02-11T10:40:58.164Z,10.43
2019-02-11T10:43:28.277Z,7.60
2019-02-11T10:45:58.611Z,7.80
2019-02-11T10:48:28.680Z,11.03
2019-02-11T10:50:58.816Z,14.37
2019-02-11T10:53:29.585Z,14.83
2019-02-11T10:55:59.609Z,8.40
2019-02-11T10:58:29.576Z,10.53
2019-02-11T11:00:59.557Z,12.20
2019-02-11T11:03:29.549Z,9.80
2019-02-11T11:06:00.121Z,11.40
2019-02-11T11:08:30.091Z,11.30
2019-02-11T11:11:00.211Z,18.00
2019-02-11T11:13:31.332Z,12.93
2019-02-11T11:16:01.566Z,16.30
2019-02-11T11:18:31.503Z,10.40
2019-02-11T11:21:01.670Z,8.13
2019-02-11T11:23:31.690Z,14.30
2019-02-11T11:26:01.965Z,16.73
2019-02-11T11:28:32.159Z,10.93
2019-02-11T11:31:02.409Z,12.40
2019-02-11T11:33:32.447Z,11.70
2019-02-11T11:36:02.949Z,12.63
2019-02-11T11:38:33.009Z,13.37
2019-02-11T11:41:03.175Z,10.77
2019-02-11T11:43:33.217Z,12.50
2019-02-11T11:46:03.208Z,17.20
2019-02-11T11:48:33.365Z,12.03
2019-02-11T11:51:03.471Z,17.60
2019-02-11T11:53:33.704Z,18.70
2019-02-11T11:56:04.550Z,14.97
2019-02-11T11:58:34.659Z,16.70
2019-02-11T12:01:04.859Z,15.87
2019-02-11T12:03:34.878Z,10.03
2019-02-11T12:06:06.414Z,14.87
2019-02-11T12:08:36.477Z,14.73
2019-02-11T12:11:07.020Z,15.17
2019-02-11T12:13:37.172Z,11.80
2019-02-11T12:16:07.254Z,18.07
2019-02-11T12:18:37.259Z,20.33
2019-02-11T12:21:07.365Z,20.87
2019-02-11T12:23:37.497Z,20.83
2019-02-11T12:26:08.041Z,8.50
2019-02-11T12:28:38.259Z,12.00
2019-02-11T12:31:08.184Z,18.73
2019-02-11T12:33:38.436Z,11.17
2019-02-11T12:36:08.377Z,17.30
2019-02-11T12:38:38.339Z,14.73
2019-02-11T12:41:08.542Z,15.27
2019-02-11T12:43:38.915Z,36.73
2019-02-11T12:46:08.947Z,15.20
2019-02-11T12:48:38.941Z,29.27
2019-02-11T12:51:09.050Z,17.13
2019-02-11T12:53:38.977Z,24.13
2019-02-11T12:56:09.479Z,15.00
2019-02-11T12:58:39.579Z,17.47
2019-02-11T13:01:09.739Z,17.73
2019-02-11T13:03:39.845Z,15.17
2019-02-11T13:06:09.956Z,19.53
2019-02-11T13:08:39.968Z,20.70
2019-02-11T13:11:10.243Z,16.73
2019-02-11T13:13:40.375Z,15.40
2019-02-11T13:16:10.417Z,12.50
2019-02-11T13:18:40.799Z,19.10
2019-02-11T13:21:11.554Z,17.03
2019-02-11T13:23:42.039Z,13.83
2019-02-11T13:26:12.603Z,17.47
2019-02-11T13:28:42.591Z,15.77
2019-02-11T13:31:12.587Z,14.90
2019-02-11T13:33:42.594Z,20.70
2019-02-11T13:36:12.773Z,19.20
2019-02-11T13:38:42.775Z,19.77
2019-02-11T13:41:12.744Z,20.27
2019-02-11T13:43:46.829Z,14.40
2019-02-11T13:46:16.800Z,17.90
2019-02-11T13:48:50.322Z,16.23
2019-02-11T13:51:20.442Z,14.43
2019-02-11T13:53:50.802Z,13.13
2019-02-11T13:56:20.871Z,19.63
2019-02-11T13:58:52.211Z,20.70
2019-02-11T14:01:22.870Z,21.07
2019-02-11T14:03:52.886Z,13.60
2019-02-11T14:06:22.858Z,11.60
2019-02-11T14:08:52.880Z,23.23
2019-02-11T14:11:23.094Z,9.30
2019-02-11T14:14:02.728Z,12.43
2019-02-11T14:16:25.293Z,12.30
2019-02-11T14:18:55.418Z,16.17
2019-02-11T14:21:25.531Z,9.47
2019-02-11T14:23:55.580Z,15.97
2019-02-11T14:26:25.756Z,15.00
2019-02-11T14:28:56.078Z,22.00
2019-02-11T14:31:26.185Z,20.57
2019-02-11T14:33:56.317Z,10.33
2019-02-11T14:36:26.469Z,15.13
2019-02-11T14:38:56.641Z,14.60
2019-02-11T14:41:26.658Z,18.60
2019-02-11T14:43:56.679Z,11.33
2019-02-11T14:46:26.687Z,15.70
2019-02-11T14:48:57.012Z,20.27
2019-02-11T14:51:27.188Z,22.60
2019-02-11T14:53:57.565Z,27.40
2019-02-11T14:56:27.545Z,15.87
2019-02-11T14:58:58.014Z,20.77
2019-02-11T15:01:28.025Z,13.70
2019-02-11T15:03:57.982Z,18.03
2019-02-11T15:06:28.122Z,10.03
2019-02-11T15:08:58.133Z,17.03
2019-02-11T15:11:28.197Z,12.03
2019-02-11T15:13:58.142Z,18.10
2019-02-11T15:16:28.175Z,15.70
2019-02-11T15:18:58.320Z,13.67
2019-02-11T15:21:28.538Z,18.87
2019-02-11T15:23:58.562Z,18.97
2019-02-11T15:26:28.719Z,17.20
2019-02-11T15:28:58.794Z,9.63
2019-02-11T15:31:28.864Z,18.83
2019-02-11T15:33:59.216Z,15.87
2019-02-11T15:36:29.291Z,14.73
2019-02-11T15:38:59.415Z,18.77
2019-02-11T15:41:29.444Z,9.10
2019-02-11T15:43:59.471Z,19.03
2019-02-11T15:46:29.487Z,16.33
2019-02-11T15:48:59.531Z,9.57
2019-02-11T15:51:30.548Z,9.60
2019-02-11T15:54:00.560Z,8.47
2019-02-11T15:56:31.106Z,9.83
2019-02-11T15:59:01.202Z,13.47
2019-02-11T16:01:31.378Z,9.20
2019-02-11T16:04:01.515Z,10.13
2019-02-11T16:06:37.910Z,7.97
2019-02-11T16:09:04.912Z,8.67
2019-02-11T16:11:35.874Z,18.50
2019-02-11T16:14:05.961Z,13.20
2019-02-11T16:16:35.949Z,18.90
2019-02-11T16:19:06.197Z,19.07
2019-02-11T16:21:36.281Z,15.67
2019-02-11T16:24:06.614Z,15.00
2019-02-11T16:26:36.629Z,15.03
2019-02-11T16:29:06.677Z,12.10
2019-02-11T16:31:36.672Z,18.03
2019-02-11T16:34:06.827Z,25.50
2019-02-11T16:36:36.840Z,15.83
2019-02-11T16:39:07.314Z,13.93
2019-02-11T16:41:37.411Z,29.30
2019-02-11T16:44:07.396Z,6.73
2019-02-11T16:46:37.965Z,10.60
2019-02-11T16:49:07.957Z,9.60
2019-02-11T16:51:37.911Z,14.27
2019-02-11T16:54:07.993Z,21.97
2019-02-11T16:56:38.004Z,7.30
2019-02-11T16:59:08.064Z,12.73
2019-02-11T17:01:38.013Z,17.53
2019-02-11T17:04:07.975Z,17.33
2019-02-11T17:06:37.980Z,9.70
2019-02-11T17:09:08.314Z,15.93
2019-02-11T17:11:38.369Z,85.10
2019-02-11T17:14:08.426Z,52.40
2019-02-11T17:16:38.396Z,24.10
2019-02-11T17:19:09.670Z,19.57
2019-02-11T17:21:40.141Z,22.00
2019-02-11T17:24:10.708Z,13.70
2019-02-11T17:26:40.798Z,21.20
2019-02-11T17:29:10.866Z,40.43
2019-02-11T17:31:40.825Z,153.60
2019-02-11T17:34:10.824Z,76.27
2019-02-11T17:36:40.935Z,58.37
2019-02-11T17:39:11.332Z,16.70
2019-02-11T17:41:41.729Z,24.47
2019-02-11T17:44:11.701Z,15.90
2019-02-11T17:46:41.730Z,19.17
2019-02-11T17:49:17.615Z,27.30
2019-02-11T17:51:43.837Z,18.30
2019-02-11T17:54:14.275Z,58.77
2019-02-11T17:56:44.327Z,22.87
2019-02-11T17:59:14.371Z,36.80
2019-02-11T18:01:44.565Z,64.17
2019-02-11T18:04:14.553Z,63.40
2019-02-11T18:06:44.494Z,36.90
2019-02-11T18:09:14.484Z,38.00
2019-02-11T18:11:44.448Z,53.57
2019-02-11T18:14:14.803Z,27.60
2019-02-11T18:16:45.013Z,18.27
2019-02-11T18:19:15.014Z,35.53
2019-02-11T18:21:45.157Z,33.23
2019-02-11T18:24:15.353Z,270.40
2019-02-11T18:26:45.344Z,181.60
2019-02-11T18:29:15.306Z,73.33
2019-02-11T18:31:45.258Z,57.40
2019-02-11T18:34:15.509Z,31.97
2019-02-11T18:36:45.590Z,29.43
2019-02-11T18:39:15.605Z,136.50
2019-02-11T18:41:45.808Z,322.47
2019-02-11T18:44:15.788Z,287.27
2019-02-11T18:46:45.784Z,192.57
2019-02-11T18:49:15.727Z,249.80
2019-02-11T18:51:45.871Z,164.47
2019-02-11T18:54:15.892Z,109.97
2019-02-11T18:56:45.946Z,104.37
2019-02-11T18:59:24.260Z,114.20
2019-02-11T19:01:47.826Z,111.73
2019-02-11T19:04:17.796Z,151.90
2019-02-11T19:06:47.775Z,46.90
2019-02-11T19:09:18.534Z,93.63
2019-02-11T19:11:48.557Z,20.17
2019-02-11T19:14:18.562Z,46.43
2019-02-11T19:16:48.728Z,49.57
2019-02-11T19:19:18.831Z,52.53
2019-02-11T19:21:49.972Z,126.33
2019-02-11T19:24:20.158Z,65.73
2019-02-11T19:26:50.325Z,151.87
2019-02-11T19:29:20.366Z,77.50
2019-02-11T19:31:50.394Z,57.53
2019-02-11T19:34:20.842Z,56.60
2019-02-11T19:36:51.237Z,50.80
2019-02-11T19:39:21.262Z,134.33
2019-02-11T19:41:51.558Z,49.10
2019-02-11T19:44:21.708Z,47.43
2019-02-11T19:46:52.013Z,98.83
2019-02-11T19:49:22.026Z,199.33
2019-02-11T19:51:52.119Z,131.87
2019-02-11T19:54:22.385Z,193.30
2019-02-11T19:56:52.401Z,118.40
2019-02-11T19:59:22.524Z,117.50
2019-02-11T20:01:52.581Z,53.60
2019-02-11T20:04:22.579Z,57.17
2019-02-11T20:06:52.673Z,74.57
2019-02-11T20:09:23.371Z,118.80
2019-02-11T20:11:53.535Z,97.00
2019-02-11T20:14:23.786Z,167.13
2019-02-11T20:16:54.055Z,120.47
2019-02-11T20:19:24.229Z,220.20
2019-02-11T20:21:54.665Z,56.00
2019-02-11T20:24:25.713Z,78.57
2019-02-11T20:26:55.776Z,34.80
2019-02-11T20:29:25.989Z,79.00
2019-02-11T20:31:55.988Z,67.43
2019-02-11T20:34:26.013Z,26.33
2019-02-11T20:36:56.247Z,24.03
2019-02-11T20:39:26.451Z,18.00
2019-02-11T20:41:56.686Z,42.73
2019-02-11T20:44:26.895Z,24.43
2019-02-11T20:46:56.900Z,21.00
2019-02-11T20:49:26.966Z,62.90
2019-02-11T20:51:57.270Z,12.30
2019-02-11T20:54:27.694Z,19.10
2019-02-11T20:56:57.697Z,54.33
2019-02-11T20:59:27.829Z,16.90
2019-02-11T21:01:57.940Z,42.40
2019-02-11T21:04:28.002Z,15.37
2019-02-11T21:06:58.187Z,20.23
2019-02-11T21:09:28.375Z,8.73
2019-02-11T21:11:58.734Z,18.33
2019-02-11T21:14:28.846Z,15.37
2019-02-11T21:16:59.029Z,12.13
2019-02-11T21:19:29.278Z,12.77
2019-02-11T21:21:59.403Z,11.17
2019-02-11T21:28:05.639Z,54.77
2019-02-11T21:34:02.648Z,37.57
2019-02-11T21:40:02.952Z,42.10
2019-02-11T21:46:19.336Z,50.47
2019-02-11T21:48:49.615Z,46.77
2019-02-11T21:54:46.354Z,12.23
2019-02-11T21:57:16.490Z,32.13
2019-02-11T21:59:46.905Z,36.70
2019-02-11T22:02:16.883Z,17.83
2019-02-11T22:04:47.082Z,54.60
2019-02-11T22:07:17.206Z,20.50
2019-02-11T22:09:47.329Z,10.63
2019-02-11T22:12:17.381Z,30.13
2019-02-11T22:14:47.782Z,25.73
2019-02-11T22:17:17.897Z,28.97
2019-02-11T22:19:48.014Z,47.07
2019-02-11T22:22:18.110Z,57.13
2019-02-11T22:24:48.081Z,34.13
2019-02-11T22:27:18.053Z,20.60
2019-02-11T22:29:48.169Z,47.23
2019-02-11T22:32:18.482Z,28.30
2019-02-11T22:34:48.673Z,50.43
2019-02-11T22:37:18.827Z,49.27
2019-02-11T22:39:48.867Z,95.23
2019-02-11T22:42:18.851Z,46.60
2019-02-11T22:44:48.988Z,30.30
2019-02-11T22:47:19.054Z,110.77
2019-02-11T22:49:49.256Z,66.03
2019-02-11T22:52:19.252Z,67.90
2019-02-11T22:54:49.597Z,86.83
2019-02-11T22:57:19.626Z,66.33
2019-02-11T22:59:49.730Z,56.80
2019-02-11T23:02:20.599Z,47.83
2019-02-11T23:04:50.975Z,93.27
2019-02-11T23:07:21.272Z,81.43
2019-02-11T23:09:51.357Z,72.27
2019-02-11T23:12:21.374Z,46.67
2019-02-11T23:14:51.630Z,44.80
2019-02-11T23:17:21.629Z,57.57
2019-02-11T23:19:51.763Z,23.03
2019-02-11T23:22:21.997Z,44.20
2019-02-11T23:24:52.202Z,38.20
2019-02-11T23:27:22.251Z,60.67
2019-02-11T23:29:52.215Z,89.93
2019-02-11T23:32:22.373Z,37.23
2019-02-11T23:34:52.517Z,96.87
2019-02-11T23:37:22.490Z,117.83
2019-02-11T23:39:52.515Z,41.47
2019-02-11T23:42:23.411Z,76.90
2019-02-11T23:44:53.548Z,65.53
2019-02-11T23:47:23.529Z,124.53
2019-02-11T23:49:53.766Z,74.33
2019-02-11T23:52:24.000Z,76.83
2019-02-11T23:54:54.300Z,41.63
2019-02-11T23:57:24.406Z,44.30
2019-02-11T23:59:54.457Z,50.50
